createdAt,value
2022-08-05T00:01:28.193Z,5.80
2022-08-05T00:06:33.353Z,6.32
2022-08-05T00:11:49.622Z,6.03
2022-08-05T00:16:58.906Z,5.80
2022-08-05T00:22:05.277Z,6.10
2022-08-05T00:27:10.522Z,6.00
2022-08-05T00:32:16.768Z,5.72
2022-08-05T00:37:19.461Z,5.97
2022-08-05T00:42:34.451Z,5.90
2022-08-05T00:47:57.213Z,6.37
2022-08-05T00:53:00.270Z,6.07
2022-08-05T00:58:04.734Z,5.30
2022-08-05T01:03:08.186Z,5.80
2022-08-05T01:08:30.676Z,5.97
2022-08-05T01:14:01.648Z,5.80
2022-08-05T01:20:01.880Z,5.53
2022-08-05T01:25:40.754Z,5.93
2022-08-05T01:31:08.718Z,6.03
2022-08-05T01:36:16.345Z,6.07
2022-08-05T01:41:22.558Z,6.33
2022-08-05T01:46:42.441Z,5.82
2022-08-05T01:51:51.791Z,6.22
2022-08-05T01:58:10.723Z,5.60
2022-08-05T02:02:28.346Z,6.63
2022-08-05T02:07:33.702Z,5.80
2022-08-05T02:12:58.322Z,7.03
2022-08-05T02:18:31.858Z,6.10
2022-08-05T02:23:37.435Z,6.70
2022-08-05T02:28:45.957Z,6.50
2022-08-05T02:33:58.676Z,6.80
2022-08-05T02:39:05.076Z,7.05
2022-08-05T02:44:14.161Z,6.72
2022-08-05T02:49:17.540Z,6.80
2022-08-05T02:54:36.482Z,7.05
2022-08-05T02:59:50.163Z,6.70
2022-08-05T03:04:54.672Z,7.25
2022-08-05T03:09:57.645Z,7.07
2022-08-05T03:15:00.334Z,6.72
2022-08-05T03:20:03.340Z,7.05
2022-08-05T03:25:31.660Z,7.30
2022-08-05T03:30:34.173Z,6.95
2022-08-05T03:35:41.207Z,6.93
2022-08-05T03:40:48.613Z,6.70
2022-08-05T03:45:58.655Z,6.90
2022-08-05T03:52:39.017Z,6.93
2022-08-05T03:56:41.550Z,6.88
2022-08-05T04:01:48.433Z,6.13
2022-08-05T04:06:52.510Z,6.25
2022-08-05T04:11:57.133Z,6.85
2022-08-05T04:17:03.079Z,6.80
2022-08-05T04:22:11.984Z,6.70
2022-08-05T04:27:15.469Z,7.60
2022-08-05T04:32:30.864Z,7.53
2022-08-05T04:38:01.709Z,7.22
2022-08-05T04:42:58.952Z,7.33
2022-08-05T04:48:27.313Z,7.25
2022-08-05T04:53:33.630Z,6.95
2022-08-05T04:58:38.311Z,7.15
2022-08-05T05:03:42.826Z,7.32
2022-08-05T05:08:49.940Z,8.33
2022-08-05T05:13:52.903Z,8.00
2022-08-05T05:19:18.712Z,7.32
2022-08-05T05:24:22.029Z,7.43
2022-08-05T05:29:24.944Z,7.50
2022-08-05T05:34:47.866Z,6.50
2022-08-05T05:39:55.319Z,6.57
2022-08-05T05:44:59.562Z,6.65
2022-08-05T05:50:04.202Z,6.70
2022-08-05T05:55:13.313Z,6.43
2022-08-05T06:00:19.509Z,7.17
2022-08-05T06:05:22.805Z,6.57
2022-08-05T06:10:25.933Z,6.53
2022-08-05T06:16:31.005Z,6.38
2022-08-05T06:20:55.487Z,6.25
2022-08-05T06:26:12.289Z,6.57
2022-08-05T06:31:17.863Z,6.50
2022-08-05T06:36:25.897Z,6.50
2022-08-05T06:41:28.953Z,6.30
2022-08-05T06:46:37.548Z,6.45
2022-08-05T06:51:40.798Z,6.30
2022-08-05T06:56:54.914Z,6.72
2022-08-05T07:02:07.033Z,5.97
2022-08-05T07:07:10.088Z,6.40
2022-08-05T07:12:32.780Z,6.05
2022-08-05T07:18:00.693Z,6.27
2022-08-05T07:22:59.217Z,6.35
2022-08-05T07:28:07.348Z,6.20
2022-08-05T07:33:16.008Z,5.90
2022-08-05T07:38:33.271Z,5.95
2022-08-05T07:43:37.591Z,6.10
2022-08-05T07:49:01.549Z,6.40
2022-08-05T07:54:03.579Z,6.05
2022-08-05T07:59:08.542Z,6.15
2022-08-05T08:04:11.809Z,5.95
2022-08-05T08:09:16.282Z,6.07
2022-08-05T08:14:22.674Z,5.60
2022-08-05T08:20:21.106Z,6.00
2022-08-05T08:24:51.261Z,6.20
2022-08-05T08:30:06.675Z,6.07
2022-08-05T08:35:18.119Z,5.97
2022-08-05T08:40:22.909Z,6.50
2022-08-05T08:45:29.462Z,6.55
2022-08-05T08:51:03.208Z,5.95
2022-08-05T08:56:04.357Z,6.60
2022-08-05T09:01:15.870Z,6.47
2022-08-05T09:06:21.374Z,5.90
2022-08-05T09:11:51.250Z,5.75
2022-08-05T09:16:50.656Z,5.65
2022-08-05T09:22:17.726Z,5.70
2022-08-05T09:28:04.890Z,5.33
2022-08-05T09:33:02.550Z,5.20
2022-08-05T09:38:12.938Z,5.45
2022-08-05T09:43:41.579Z,5.10
2022-08-05T09:48:55.467Z,6.03
2022-08-05T09:54:09.494Z,5.40
2022-08-05T09:59:17.193Z,5.78
2022-08-05T10:04:28.617Z,5.68
2022-08-05T10:09:45.140Z,5.22
2022-08-05T10:14:48.489Z,4.97
2022-08-05T10:20:04.021Z,5.50
2022-08-05T10:25:14.399Z,4.95
2022-08-05T10:32:03.015Z,5.15
2022-08-05T10:35:44.120Z,4.95
2022-08-05T10:40:50.780Z,4.80
2022-08-05T10:46:06.229Z,4.70
2022-08-05T10:51:21.670Z,4.95
2022-08-05T10:56:43.832Z,4.82
2022-08-05T11:01:55.302Z,5.15
2022-08-05T11:07:11.656Z,4.88
2022-08-05T11:12:45.473Z,4.90
2022-08-05T11:18:15.755Z,6.30
2022-08-05T11:24:02.867Z,4.70
2022-08-05T11:29:12.359Z,4.75
2022-08-05T11:34:37.737Z,6.00
2022-08-05T11:39:55.225Z,5.07
2022-08-05T11:45:23.338Z,5.47
2022-08-05T11:50:29.141Z,4.65
2022-08-05T11:55:36.455Z,4.68
2022-08-05T12:00:41.647Z,4.93
2022-08-05T12:05:47.310Z,4.90
2022-08-05T12:10:51.828Z,5.15
2022-08-05T12:15:56.004Z,4.80
2022-08-05T12:21:13.978Z,4.65
2022-08-05T12:26:18.368Z,4.60
2022-08-05T12:31:32.536Z,4.93
2022-08-05T12:36:47.309Z,4.50
2022-08-05T12:41:50.388Z,4.97
2022-08-05T12:47:02.072Z,4.65
2022-08-05T12:52:12.686Z,4.65
2022-08-05T12:57:23.228Z,5.50
2022-08-05T13:02:30.449Z,4.60
2022-08-05T13:07:59.672Z,4.97
2022-08-05T13:12:58.393Z,4.72
2022-08-05T13:18:01.597Z,4.70
2022-08-05T13:23:07.182Z,4.63
2022-08-05T13:28:10.470Z,4.35
2022-08-05T13:33:14.269Z,4.32
2022-08-05T13:38:42.561Z,4.50
2022-08-05T13:43:55.052Z,4.22
2022-08-05T13:49:00.935Z,4.40
2022-08-05T13:54:12.428Z,4.60
2022-08-05T13:59:20.187Z,4.63
2022-08-05T14:04:42.701Z,4.20
2022-08-05T14:09:53.625Z,4.30
2022-08-05T14:14:56.648Z,4.57
2022-08-05T14:20:04.652Z,4.32
2022-08-05T14:25:19.006Z,4.32
2022-08-05T14:30:26.542Z,4.60
2022-08-05T14:35:36.244Z,4.60
2022-08-05T14:40:52.669Z,4.90
2022-08-05T14:45:56.239Z,4.75
2022-08-05T14:50:59.059Z,4.55
2022-08-05T14:56:06.179Z,4.35
2022-08-05T15:01:16.188Z,4.70
2022-08-05T15:06:20.228Z,4.60
2022-08-05T15:11:52.706Z,4.38
2022-08-05T15:16:55.479Z,4.80
2022-08-05T15:22:00.035Z,4.25
2022-08-05T15:27:03.512Z,4.63
2022-08-05T15:32:06.697Z,4.57
2022-08-05T15:37:14.747Z,5.00
2022-08-05T15:42:54.187Z,4.45
2022-08-05T15:47:43.818Z,4.70
2022-08-05T15:52:52.782Z,4.40
2022-08-05T15:57:58.249Z,4.73
2022-08-05T16:03:01.512Z,4.50
2022-08-05T16:08:05.434Z,5.00
2022-08-05T16:13:08.890Z,4.53
2022-08-05T16:18:12.586Z,4.65
2022-08-05T16:23:17.467Z,4.70
2022-08-05T16:28:20.269Z,4.55
2022-08-05T16:33:28.898Z,4.82
2022-08-05T16:38:44.492Z,4.95
2022-08-05T16:43:58.129Z,4.93
2022-08-05T16:49:02.888Z,4.60
2022-08-05T16:54:16.073Z,5.10
2022-08-05T16:59:20.405Z,5.28
2022-08-05T17:04:26.548Z,5.30
2022-08-05T17:09:57.708Z,5.53
2022-08-05T17:14:54.039Z,5.33
2022-08-05T17:19:57.872Z,5.10
2022-08-05T17:25:00.978Z,5.43
2022-08-05T17:30:18.683Z,6.28
2022-08-05T17:35:32.517Z,6.03
2022-08-05T17:40:53.271Z,6.50
2022-08-05T17:45:56.229Z,6.50
2022-08-05T17:50:59.049Z,6.50
2022-08-05T17:56:04.820Z,6.85
2022-08-05T18:01:08.080Z,6.78
2022-08-05T18:06:15.499Z,6.53
2022-08-05T18:11:23.831Z,6.07
2022-08-05T18:16:29.647Z,6.40
2022-08-05T18:22:09.724Z,6.10
2022-08-05T18:26:55.614Z,6.68
2022-08-05T18:32:01.024Z,6.70
2022-08-05T18:37:06.039Z,6.57
2022-08-05T18:42:15.627Z,6.63
2022-08-05T18:47:18.529Z,6.53
2022-08-05T18:52:36.296Z,7.00
2022-08-05T18:57:43.582Z,6.57
2022-08-05T19:02:55.997Z,7.38
2022-08-05T19:08:02.886Z,6.38
2022-08-05T19:13:05.650Z,7.78
2022-08-05T19:18:13.385Z,7.22
2022-08-05T19:24:05.634Z,6.43
2022-08-05T19:28:46.622Z,6.72
2022-08-05T19:33:56.243Z,6.05
2022-08-05T19:39:01.519Z,6.13
2022-08-05T19:44:12.806Z,6.32
2022-08-05T19:49:17.796Z,6.50
2022-08-05T19:54:28.448Z,6.28
2022-08-05T19:59:59.584Z,6.20
2022-08-05T20:04:58.939Z,6.35
2022-08-05T20:10:02.805Z,5.82
2022-08-05T20:15:48.603Z,6.00
2022-08-05T20:20:43.332Z,5.60
2022-08-05T20:25:47.707Z,8.48
2022-08-05T20:30:52.311Z,7.07
2022-08-05T20:35:56.223Z,7.53
2022-08-05T20:41:01.216Z,11.87
2022-08-05T20:46:07.943Z,11.07
2022-08-05T20:51:11.601Z,9.13
2022-08-05T20:56:14.733Z,9.70
2022-08-05T21:01:38.038Z,11.10
2022-08-05T21:06:45.077Z,10.33
2022-08-05T21:12:10.395Z,10.70
2022-08-05T21:17:13.442Z,9.88
2022-08-05T21:22:18.350Z,10.85
2022-08-05T21:27:27.181Z,10.65
2022-08-05T21:32:30.883Z,10.03
2022-08-05T21:37:35.033Z,10.80
2022-08-05T21:42:45.469Z,11.00
2022-08-05T21:47:56.924Z,11.15
2022-08-05T21:53:08.315Z,11.82
2022-08-05T21:58:24.805Z,12.87
2022-08-05T22:03:52.049Z,12.10
2022-08-05T22:08:55.682Z,12.15
2022-08-05T22:14:06.431Z,12.27
2022-08-05T22:20:00.302Z,11.85
2022-08-05T22:25:03.940Z,11.20
2022-08-05T22:30:17.168Z,11.23
2022-08-05T22:35:20.236Z,11.73
2022-08-05T22:40:26.687Z,11.13
2022-08-05T22:45:33.599Z,10.90
2022-08-05T22:50:40.110Z,10.63
2022-08-05T22:55:56.930Z,11.07
2022-08-05T23:01:00.255Z,11.43
2022-08-05T23:06:03.289Z,11.55
2022-08-05T23:11:09.209Z,10.98
2022-08-05T23:16:15.093Z,11.63
2022-08-05T23:21:42.992Z,10.82
2022-08-05T23:26:51.144Z,11.13
2022-08-05T23:31:53.931Z,10.40
2022-08-05T23:36:59.261Z,10.82
2022-08-05T23:42:02.389Z,10.93
2022-08-05T23:47:14.648Z,11.57
2022-08-05T23:52:28.365Z,11.20
2022-08-05T23:57:31.902Z,10.55
